sensor_id;sensor_type;location;lat;lon;timestamp;pressure;altitude;pressure_sealevel;temperature;humidity
16016;BME280;8112;53.592;10.184;2023-03-11T00:00:36;99574.47;;;-0.03;100.00
16016;BME280;8112;53.592;10.184;2023-03-11T00:05:41;99572.25;;;-0.13;100.00
16016;BME280;8112;53.592;10.184;2023-03-11T00:10:45;99589.38;;;-0.09;100.00
16016;BME280;8112;53.592;10.184;2023-03-11T00:15:48;99607.72;;;-0.16;100.00
16016;BME280;8112;53.592;10.184;2023-03-11T00:20:53;99616.19;;;-0.10;100.00
16016;BME280;8112;53.592;10.184;2023-03-11T00:25:55;99622.53;;;-0.21;100.00
16016;BME280;8112;53.592;10.184;2023-03-11T00:30:59;99626.56;;;-0.12;100.00
16016;BME280;8112;53.592;10.184;2023-03-11T00:36:03;99635.22;;;-0.13;100.00
16016;BME280;8112;53.592;10.184;2023-03-11T00:41:06;99653.31;;;-0.11;100.00
16016;BME280;8112;53.592;10.184;2023-03-11T00:46:08;99666.22;;;-0.10;100.00
16016;BME280;8112;53.592;10.184;2023-03-11T00:51:13;99666.97;;;-0.06;100.00
16016;BME280;8112;53.592;10.184;2023-03-11T00:56:16;99675.63;;;-0.07;100.00
16016;BME280;8112;53.592;10.184;2023-03-11T01:01:19;99685.09;;;-0.06;100.00
16016;BME280;8112;53.592;10.184;2023-03-11T01:06:22;99701.53;;;-0.07;100.00
16016;BME280;8112;53.592;10.184;2023-03-11T01:11:26;99705.72;;;-0.03;100.00
16016;BME280;8112;53.592;10.184;2023-03-11T01:16:28;99712.69;;;-0.05;100.00
16016;BME280;8112;53.592;10.184;2023-03-11T01:21:31;99712.69;;;-0.05;100.00
16016;BME280;8112;53.592;10.184;2023-03-11T01:26:33;99718.75;;;-0.06;100.00
16016;BME280;8112;53.592;10.184;2023-03-11T01:31:35;99726.41;;;-0.02;100.00
16016;BME280;8112;53.592;10.184;2023-03-11T01:36:38;99737.75;;;-0.06;100.00
16016;BME280;8112;53.592;10.184;2023-03-11T01:41:40;99745.34;;;-0.01;100.00
16016;BME280;8112;53.592;10.184;2023-03-11T01:52:18;99764.59;;;-0.08;100.00
16016;BME280;8112;53.592;10.184;2023-03-11T01:57:24;99768.16;;;-0.12;100.00
16016;BME280;8112;53.592;10.184;2023-03-11T02:02:29;99779.19;;;-0.06;100.00
16016;BME280;8112;53.592;10.184;2023-03-11T02:07:34;99783.50;;;-0.06;100.00
16016;BME280;8112;53.592;10.184;2023-03-11T02:12:39;99781.91;;;-0.10;100.00
16016;BME280;8112;53.592;10.184;2023-03-11T02:17:42;99779.44;;;-0.13;100.00
16016;BME280;8112;53.592;10.184;2023-03-11T02:22:46;99783.97;;;-0.22;100.00
16016;BME280;8112;53.592;10.184;2023-03-11T02:27:52;99796.03;;;-0.21;100.00
16016;BME280;8112;53.592;10.184;2023-03-11T02:32:58;99814.94;;;-0.19;100.00
16016;BME280;8112;53.592;10.184;2023-03-11T02:38:00;99816.00;;;-0.24;100.00
16016;BME280;8112;53.592;10.184;2023-03-11T02:43:07;99831.25;;;-0.15;100.00
16016;BME280;8112;53.592;10.184;2023-03-11T02:48:11;99846.69;;;-0.12;100.00
16016;BME280;8112;53.592;10.184;2023-03-11T02:53:15;99863.50;;;-0.25;100.00
16016;BME280;8112;53.592;10.184;2023-03-11T02:58:18;99873.88;;;-0.27;100.00
16016;BME280;8112;53.592;10.184;2023-03-11T03:03:20;99881.66;;;-0.27;100.00
16016;BME280;8112;53.592;10.184;2023-03-11T03:08:21;99882.47;;;-0.25;100.00
16016;BME280;8112;53.592;10.184;2023-03-11T03:13:25;99895.28;;;-0.20;100.00
16016;BME280;8112;53.592;10.184;2023-03-11T03:18:28;99896.63;;;-0.38;100.00
16016;BME280;8112;53.592;10.184;2023-03-11T03:23:30;99910.47;;;-0.39;100.00
16016;BME280;8112;53.592;10.184;2023-03-11T03:28:36;99920.91;;;-0.43;100.00
16016;BME280;8112;53.592;10.184;2023-03-11T03:33:38;99923.38;;;-0.38;100.00
16016;BME280;8112;53.592;10.184;2023-03-11T03:38:41;99929.25;;;-0.31;100.00
16016;BME280;8112;53.592;10.184;2023-03-11T03:43:44;99938.31;;;-0.48;100.00
16016;BME280;8112;53.592;10.184;2023-03-11T03:48:46;99951.97;;;-0.43;100.00
16016;BME280;8112;53.592;10.184;2023-03-11T03:53:48;99955.44;;;-0.44;100.00
16016;BME280;8112;53.592;10.184;2023-03-11T03:58:52;99968.16;;;-0.34;100.00
16016;BME280;8112;53.592;10.184;2023-03-11T04:03:56;99968.09;;;-0.33;100.00
16016;BME280;8112;53.592;10.184;2023-03-11T04:08:59;99974.28;;;-0.38;100.00
16016;BME280;8112;53.592;10.184;2023-03-11T04:14:05;99982.84;;;-0.35;100.00
16016;BME280;8112;53.592;10.184;2023-03-11T04:19:12;99972.38;;;-0.32;100.00
16016;BME280;8112;53.592;10.184;2023-03-11T04:24:14;99982.91;;;-0.38;100.00
16016;BME280;8112;53.592;10.184;2023-03-11T04:29:17;99989.75;;;-0.35;100.00
16016;BME280;8112;53.592;10.184;2023-03-11T04:34:23;99986.19;;;-0.31;100.00
16016;BME280;8112;53.592;10.184;2023-03-11T04:39:25;99986.66;;;-0.50;100.00
16016;BME280;8112;53.592;10.184;2023-03-11T04:44:29;99987.66;;;-0.54;100.00
16016;BME280;8112;53.592;10.184;2023-03-11T04:49:31;99990.44;;;-0.63;100.00
16016;BME280;8112;53.592;10.184;2023-03-11T04:54:33;100008.59;;;-0.65;100.00
16016;BME280;8112;53.592;10.184;2023-03-11T04:59:36;100010.25;;;-0.62;100.00
16016;BME280;8112;53.592;10.184;2023-03-11T05:04:38;100019.06;;;-0.69;100.00
16016;BME280;8112;53.592;10.184;2023-03-11T05:09:40;100031.59;;;-0.52;100.00
16016;BME280;8112;53.592;10.184;2023-03-11T05:14:44;100042.84;;;-0.55;100.00
16016;BME280;8112;53.592;10.184;2023-03-11T05:19:46;100048.97;;;-0.58;100.00
16016;BME280;8112;53.592;10.184;2023-03-11T05:24:57;100065.22;;;-0.52;100.00
16016;BME280;8112;53.592;10.184;2023-03-11T05:30:00;100083.25;;;-0.48;100.00
16016;BME280;8112;53.592;10.184;2023-03-11T05:35:05;100082.72;;;-0.62;100.00
16016;BME280;8112;53.592;10.184;2023-03-11T05:40:10;100091.38;;;-0.63;100.00
16016;BME280;8112;53.592;10.184;2023-03-11T05:45:14;100096.72;;;-0.71;100.00
16016;BME280;8112;53.592;10.184;2023-03-11T05:50:18;100107.06;;;-0.71;100.00
16016;BME280;8112;53.592;10.184;2023-03-11T05:55:22;100115.06;;;-0.82;100.00
16016;BME280;8112;53.592;10.184;2023-03-11T06:00:25;100121.38;;;-0.94;100.00
16016;BME280;8112;53.592;10.184;2023-03-11T06:05:30;100137.69;;;-0.90;100.00
16016;BME280;8112;53.592;10.184;2023-03-11T06:10:32;100141.19;;;-0.94;100.00
16016;BME280;8112;53.592;10.184;2023-03-11T06:15:36;100143.91;;;-1.01;100.00
16016;BME280;8112;53.592;10.184;2023-03-11T06:20:39;100150.03;;;-1.05;100.00
16016;BME280;8112;53.592;10.184;2023-03-11T06:25:41;100162.25;;;-1.13;100.00
16016;BME280;8112;53.592;10.184;2023-03-11T06:30:44;100165.41;;;-0.97;100.00
16016;BME280;8112;53.592;10.184;2023-03-11T06:35:55;100175.78;;;-0.98;100.00
16016;BME280;8112;53.592;10.184;2023-03-11T06:40:58;100173.94;;;-0.93;100.00
16016;BME280;8112;53.592;10.184;2023-03-11T06:46:07;100175.44;;;-0.81;100.00
16016;BME280;8112;53.592;10.184;2023-03-11T06:51:10;100201.13;;;-0.74;100.00
16016;BME280;8112;53.592;10.184;2023-03-11T06:56:12;100202.91;;;-0.76;100.00
16016;BME280;8112;53.592;10.184;2023-03-11T07:01:23;100220.69;;;-0.59;100.00
16016;BME280;8112;53.592;10.184;2023-03-11T07:06:27;100221.50;;;-0.58;100.00
16016;BME280;8112;53.592;10.184;2023-03-11T07:11:38;100231.63;;;-0.46;100.00
16016;BME280;8112;53.592;10.184;2023-03-11T07:16:46;100232.56;;;-0.50;100.00
16016;BME280;8112;53.592;10.184;2023-03-11T07:21:55;100230.41;;;-0.29;100.00
16016;BME280;8112;53.592;10.184;2023-03-11T07:26:57;100237.00;;;-0.16;100.00
16016;BME280;8112;53.592;10.184;2023-03-11T07:32:00;100242.78;;;-0.04;100.00
16016;BME280;8112;53.592;10.184;2023-03-11T07:37:05;100252.16;;;0.02;100.00
16016;BME280;8112;53.592;10.184;2023-03-11T07:42:07;100256.56;;;-0.02;100.00
16016;BME280;8112;53.592;10.184;2023-03-11T07:47:11;100261.72;;;-0.02;100.00
16016;BME280;8112;53.592;10.184;2023-03-11T07:52:13;100271.63;;;0.20;100.00
16016;BME280;8112;53.592;10.184;2023-03-11T07:57:14;100283.63;;;0.24;100.00
16016;BME280;8112;53.592;10.184;2023-03-11T08:02:18;100285.13;;;0.33;100.00
16016;BME280;8112;53.592;10.184;2023-03-11T08:07:20;100284.59;;;0.56;100.00
16016;BME280;8112;53.592;10.184;2023-03-11T08:12:22;100300.34;;;0.47;100.00
16016;BME280;8112;53.592;10.184;2023-03-11T08:17:36;100304.84;;;0.40;100.00
16016;BME280;8112;53.592;10.184;2023-03-11T08:22:38;100314.06;;;0.52;100.00
16016;BME280;8112;53.592;10.184;2023-03-11T08:27:39;100311.97;;;0.66;100.00
16016;BME280;8112;53.592;10.184;2023-03-11T08:32:43;100335.47;;;0.60;100.00
16016;BME280;8112;53.592;10.184;2023-03-11T08:37:44;100330.13;;;0.66;100.00
16016;BME280;8112;53.592;10.184;2023-03-11T08:42:46;100335.75;;;0.84;100.00
16016;BME280;8112;53.592;10.184;2023-03-11T08:47:49;100337.28;;;0.91;100.00
16016;BME280;8112;53.592;10.184;2023-03-11T08:52:51;100340.66;;;0.96;100.00
16016;BME280;8112;53.592;10.184;2023-03-11T08:57:55;100351.78;;;1.00;100.00
16016;BME280;8112;53.592;10.184;2023-03-11T09:02:58;100357.09;;;0.95;100.00
16016;BME280;8112;53.592;10.184;2023-03-11T09:08:00;100355.03;;;1.08;100.00
16016;BME280;8112;53.592;10.184;2023-03-11T09:13:02;100361.75;;;1.17;100.00
16016;BME280;8112;53.592;10.184;2023-03-11T09:18:05;100362.38;;;1.25;100.00
16016;BME280;8112;53.592;10.184;2023-03-11T09:23:17;100373.31;;;1.38;100.00
16016;BME280;8112;53.592;10.184;2023-03-11T09:28:23;100375.06;;;1.36;100.00
16016;BME280;8112;53.592;10.184;2023-03-11T09:33:26;100381.34;;;1.29;100.00
16016;BME280;8112;53.592;10.184;2023-03-11T09:38:28;100381.22;;;1.34;100.00
16016;BME280;8112;53.592;10.184;2023-03-11T09:43:42;100384.44;;;1.44;100.00
16016;BME280;8112;53.592;10.184;2023-03-11T09:48:54;100396.13;;;1.59;100.00
16016;BME280;8112;53.592;10.184;2023-03-11T09:54:03;100396.66;;;1.71;100.00
16016;BME280;8112;53.592;10.184;2023-03-11T09:59:07;100395.63;;;1.77;100.00
16016;BME280;8112;53.592;10.184;2023-03-11T10:04:14;100407.56;;;1.84;100.00
16016;BME280;8112;53.592;10.184;2023-03-11T10:09:39;100402.16;;;1.92;100.00
16016;BME280;8112;53.592;10.184;2023-03-11T10:14:52;100409.78;;;1.98;100.00
16016;BME280;8112;53.592;10.184;2023-03-11T10:20:00;100412.06;;;2.39;100.00
16016;BME280;8112;53.592;10.184;2023-03-11T10:25:08;100406.06;;;2.66;100.00
16016;BME280;8112;53.592;10.184;2023-03-11T10:30:19;100417.81;;;2.78;100.00
16016;BME280;8112;53.592;10.184;2023-03-11T10:35:29;100415.47;;;2.97;100.00
16016;BME280;8112;53.592;10.184;2023-03-11T10:40:35;100413.16;;;3.14;100.00
16016;BME280;8112;53.592;10.184;2023-03-11T10:45:39;100410.41;;;3.19;100.00
16016;BME280;8112;53.592;10.184;2023-03-11T10:50:54;100410.09;;;3.28;100.00
16016;BME280;8112;53.592;10.184;2023-03-11T10:55:58;100412.66;;;3.55;100.00
16016;BME280;8112;53.592;10.184;2023-03-11T11:01:02;100414.06;;;4.13;100.00
16016;BME280;8112;53.592;10.184;2023-03-11T11:06:20;100414.84;;;4.84;100.00
16016;BME280;8112;53.592;10.184;2023-03-11T11:11:23;100408.06;;;5.44;100.00
16016;BME280;8112;53.592;10.184;2023-03-11T11:16:25;100414.81;;;5.89;100.00
16016;BME280;8112;53.592;10.184;2023-03-11T11:21:31;100409.41;;;6.32;100.00
16016;BME280;8112;53.592;10.184;2023-03-11T11:26:34;100402.44;;;7.41;100.00
16016;BME280;8112;53.592;10.184;2023-03-11T11:31:37;100395.78;;;7.34;100.00
16016;BME280;8112;53.592;10.184;2023-03-11T11:36:41;100394.56;;;8.25;100.00
16016;BME280;8112;53.592;10.184;2023-03-11T11:41:44;100397.84;;;8.28;100.00
16016;BME280;8112;53.592;10.184;2023-03-11T11:46:52;100389.13;;;8.12;100.00
16016;BME280;8112;53.592;10.184;2023-03-11T11:52:02;100389.06;;;8.46;100.00
16016;BME280;8112;53.592;10.184;2023-03-11T11:57:10;100395.91;;;7.66;100.00
16016;BME280;8112;53.592;10.184;2023-03-11T12:02:28;100382.81;;;7.82;100.00
16016;BME280;8112;53.592;10.184;2023-03-11T12:07:51;100382.13;;;8.91;100.00
16016;BME280;8112;53.592;10.184;2023-03-11T12:13:18;100389.06;;;9.82;100.00
16016;BME280;8112;53.592;10.184;2023-03-11T12:18:27;100375.16;;;9.06;100.00
16016;BME280;8112;53.592;10.184;2023-03-11T12:23:41;100382.88;;;8.47;100.00
16016;BME280;8112;53.592;10.184;2023-03-11T12:28:52;100369.25;;;8.56;100.00
16016;BME280;8112;53.592;10.184;2023-03-11T12:33:59;100369.28;;;9.17;100.00
16016;BME280;8112;53.592;10.184;2023-03-11T12:39:05;100357.91;;;9.17;100.00
16016;BME280;8112;53.592;10.184;2023-03-11T12:44:26;100373.78;;;7.88;100.00
16016;BME280;8112;53.592;10.184;2023-03-11T12:49:30;100371.66;;;7.27;100.00
16016;BME280;8112;53.592;10.184;2023-03-11T12:54:35;100384.28;;;6.84;100.00
16016;BME280;8112;53.592;10.184;2023-03-11T13:05:17;100388.56;;;5.71;100.00
16016;BME280;8112;53.592;10.184;2023-03-11T13:10:37;100379.44;;;5.80;100.00
16016;BME280;8112;53.592;10.184;2023-03-11T13:15:39;100387.22;;;6.78;100.00
16016;BME280;8112;53.592;10.184;2023-03-11T13:20:48;100388.69;;;6.47;100.00
16016;BME280;8112;53.592;10.184;2023-03-11T13:26:12;100384.34;;;7.53;100.00
16016;BME280;8112;53.592;10.184;2023-03-11T13:31:40;100380.41;;;8.11;100.00
16016;BME280;8112;53.592;10.184;2023-03-11T13:36:56;100388.09;;;8.31;100.00
16016;BME280;8112;53.592;10.184;2023-03-11T13:42:20;100379.53;;;7.95;100.00
16016;BME280;8112;53.592;10.184;2023-03-11T13:47:25;100383.81;;;6.76;100.00
16016;BME280;8112;53.592;10.184;2023-03-11T13:52:30;100387.00;;;6.46;100.00
16016;BME280;8112;53.592;10.184;2023-03-11T13:57:35;100377.72;;;8.29;100.00
16016;BME280;8112;53.592;10.184;2023-03-11T14:02:42;100392.94;;;7.21;100.00
16016;BME280;8112;53.592;10.184;2023-03-11T14:07:46;100403.31;;;6.51;100.00
16016;BME280;8112;53.592;10.184;2023-03-11T14:12:49;100403.00;;;6.20;100.00
16016;BME280;8112;53.592;10.184;2023-03-11T14:17:52;100398.59;;;6.21;100.00
16016;BME280;8112;53.592;10.184;2023-03-11T14:22:55;100401.00;;;6.45;100.00
16016;BME280;8112;53.592;10.184;2023-03-11T14:28:00;100398.56;;;7.49;100.00
16016;BME280;8112;53.592;10.184;2023-03-11T14:33:04;100399.88;;;7.22;100.00
16016;BME280;8112;53.592;10.184;2023-03-11T14:38:19;100407.09;;;6.26;100.00
16016;BME280;8112;53.592;10.184;2023-03-11T14:43:23;100407.25;;;6.23;100.00
16016;BME280;8112;53.592;10.184;2023-03-11T14:48:27;100407.41;;;7.28;100.00
16016;BME280;8112;53.592;10.184;2023-03-11T14:53:34;100403.63;;;8.35;100.00
16016;BME280;8112;53.592;10.184;2023-03-11T14:58:42;100414.41;;;6.56;100.00
16016;BME280;8112;53.592;10.184;2023-03-11T15:03:48;100410.88;;;5.99;100.00
16016;BME280;8112;53.592;10.184;2023-03-11T15:08:55;100406.34;;;5.63;100.00
16016;BME280;8112;53.592;10.184;2023-03-11T15:14:20;100418.16;;;5.10;100.00
16016;BME280;8112;53.592;10.184;2023-03-11T15:19:30;100416.00;;;4.99;100.00
16016;BME280;8112;53.592;10.184;2023-03-11T15:24:32;100420.34;;;4.78;100.00
16016;BME280;8112;53.592;10.184;2023-03-11T15:29:36;100418.41;;;5.04;100.00
16016;BME280;8112;53.592;10.184;2023-03-11T15:34:39;100408.88;;;5.03;100.00
16016;BME280;8112;53.592;10.184;2023-03-11T15:39:43;100403.56;;;4.83;100.00
16016;BME280;8112;53.592;10.184;2023-03-11T15:45:01;100405.75;;;4.72;100.00
16016;BME280;8112;53.592;10.184;2023-03-11T15:50:21;100399.69;;;4.71;100.00
16016;BME280;8112;53.592;10.184;2023-03-11T15:55:25;100390.94;;;4.73;100.00
16016;BME280;8112;53.592;10.184;2023-03-11T16:00:28;100430.81;;;4.54;100.00
16016;BME280;8112;53.592;10.184;2023-03-11T16:05:30;100464.34;;;3.16;100.00
16016;BME280;8112;53.592;10.184;2023-03-11T16:10:32;100469.03;;;1.52;100.00
16016;BME280;8112;53.592;10.184;2023-03-11T16:15:36;100475.56;;;0.96;100.00
16016;BME280;8112;53.592;10.184;2023-03-11T16:20:40;100470.03;;;1.10;100.00
16016;BME280;8112;53.592;10.184;2023-03-11T16:25:43;100473.63;;;1.41;100.00
16016;BME280;8112;53.592;10.184;2023-03-11T16:30:48;100480.94;;;1.61;100.00
16016;BME280;8112;53.592;10.184;2023-03-11T16:35:50;100491.25;;;1.63;100.00
16016;BME280;8112;53.592;10.184;2023-03-11T16:40:55;100499.94;;;1.62;100.00
16016;BME280;8112;53.592;10.184;2023-03-11T16:45:58;100502.53;;;1.62;100.00
16016;BME280;8112;53.592;10.184;2023-03-11T16:51:00;100508.31;;;1.73;100.00
16016;BME280;8112;53.592;10.184;2023-03-11T16:56:04;100523.28;;;1.65;100.00
16016;BME280;8112;53.592;10.184;2023-03-11T17:01:10;100530.16;;;1.66;100.00
16016;BME280;8112;53.592;10.184;2023-03-11T17:06:12;100529.13;;;1.73;100.00
16016;BME280;8112;53.592;10.184;2023-03-11T17:11:15;100527.00;;;1.53;100.00
16016;BME280;8112;53.592;10.184;2023-03-11T17:16:19;100534.78;;;1.54;100.00
16016;BME280;8112;53.592;10.184;2023-03-11T17:21:21;100541.59;;;1.59;100.00
16016;BME280;8112;53.592;10.184;2023-03-11T17:26:22;100545.59;;;1.37;100.00
16016;BME280;8112;53.592;10.184;2023-03-11T17:31:27;100543.09;;;1.33;100.00
16016;BME280;8112;53.592;10.184;2023-03-11T17:36:28;100552.84;;;1.23;100.00
16016;BME280;8112;53.592;10.184;2023-03-11T17:41:30;100552.84;;;1.21;100.00
16016;BME280;8112;53.592;10.184;2023-03-11T17:46:33;100562.50;;;1.14;100.00
16016;BME280;8112;53.592;10.184;2023-03-11T17:51:38;100560.91;;;1.09;100.00
16016;BME280;8112;53.592;10.184;2023-03-11T17:56:39;100561.84;;;1.06;100.00
16016;BME280;8112;53.592;10.184;2023-03-11T18:01:42;100569.66;;;1.05;100.00
16016;BME280;8112;53.592;10.184;2023-03-11T18:06:44;100569.75;;;1.00;100.00
16016;BME280;8112;53.592;10.184;2023-03-11T18:11:46;100569.06;;;0.93;100.00
16016;BME280;8112;53.592;10.184;2023-03-11T18:16:49;100577.75;;;0.91;100.00
16016;BME280;8112;53.592;10.184;2023-03-11T18:21:50;100562.94;;;0.96;100.00
16016;BME280;8112;53.592;10.184;2023-03-11T18:26:52;100571.66;;;0.92;100.00
16016;BME280;8112;53.592;10.184;2023-03-11T18:31:55;100575.91;;;0.96;100.00
16016;BME280;8112;53.592;10.184;2023-03-11T18:36:57;100583.75;;;0.94;100.00
16016;BME280;8112;53.592;10.184;2023-03-11T18:41:59;100581.97;;;0.95;100.00
16016;BME280;8112;53.592;10.184;2023-03-11T18:47:03;100570.06;;;0.86;100.00
16016;BME280;8112;53.592;10.184;2023-03-11T18:52:05;100581.25;;;0.88;100.00
16016;BME280;8112;53.592;10.184;2023-03-11T18:57:07;100579.38;;;0.96;100.00
16016;BME280;8112;53.592;10.184;2023-03-11T19:02:10;100583.34;;;1.11;100.00
16016;BME280;8112;53.592;10.184;2023-03-11T19:07:11;100593.72;;;1.13;100.00
16016;BME280;8112;53.592;10.184;2023-03-11T19:12:13;100586.88;;;1.09;100.00
16016;BME280;8112;53.592;10.184;2023-03-11T19:17:16;100590.78;;;1.28;100.00
16016;BME280;8112;53.592;10.184;2023-03-11T19:22:18;100586.03;;;1.07;100.00
16016;BME280;8112;53.592;10.184;2023-03-11T19:27:20;100585.94;;;1.13;100.00
16016;BME280;8112;53.592;10.184;2023-03-11T19:32:23;100590.97;;;1.19;100.00
16016;BME280;8112;53.592;10.184;2023-03-11T19:37:24;100583.94;;;1.24;100.00
16016;BME280;8112;53.592;10.184;2023-03-11T19:42:26;100587.81;;;1.05;100.00
16016;BME280;8112;53.592;10.184;2023-03-11T19:47:29;100590.31;;;1.09;100.00
16016;BME280;8112;53.592;10.184;2023-03-11T19:52:31;100598.09;;;1.11;100.00
16016;BME280;8112;53.592;10.184;2023-03-11T19:57:33;100597.88;;;1.20;100.00
16016;BME280;8112;53.592;10.184;2023-03-11T20:02:37;100635.38;;;1.46;100.00
16016;BME280;8112;53.592;10.184;2023-03-11T20:07:38;100633.53;;;1.51;100.00
16016;BME280;8112;53.592;10.184;2023-03-11T20:12:40;100619.75;;;1.49;100.00
16016;BME280;8112;53.592;10.184;2023-03-11T20:17:45;100629.59;;;1.33;100.00
16016;BME280;8112;53.592;10.184;2023-03-11T20:22:46;100628.53;;;1.42;100.00
16016;BME280;8112;53.592;10.184;2023-03-11T20:27:48;100623.16;;;1.51;100.00
16016;BME280;8112;53.592;10.184;2023-03-11T20:32:51;100622.25;;;1.52;100.00
16016;BME280;8112;53.592;10.184;2023-03-11T20:37:53;100635.91;;;1.61;100.00
16016;BME280;8112;53.592;10.184;2023-03-11T20:42:55;100626.50;;;1.56;100.00
16016;BME280;8112;53.592;10.184;2023-03-11T20:47:58;100632.28;;;1.68;100.00
16016;BME280;8112;53.592;10.184;2023-03-11T20:53:00;100631.59;;;1.61;100.00
16016;BME280;8112;53.592;10.184;2023-03-11T20:58:02;100629.78;;;1.65;100.00
16016;BME280;8112;53.592;10.184;2023-03-11T21:03:05;100643.44;;;1.71;100.00
16016;BME280;8112;53.592;10.184;2023-03-11T21:08:06;100643.31;;;1.78;100.00
16016;BME280;8112;53.592;10.184;2023-03-11T21:13:08;100646.03;;;1.71;100.00
16016;BME280;8112;53.592;10.184;2023-03-11T21:18:11;100649.50;;;1.72;100.00
16016;BME280;8112;53.592;10.184;2023-03-11T21:23:13;100647.00;;;1.69;100.00
16016;BME280;8112;53.592;10.184;2023-03-11T21:28:14;100657.31;;;1.72;100.00
16016;BME280;8112;53.592;10.184;2023-03-11T21:33:17;100657.16;;;1.78;100.00
16016;BME280;8112;53.592;10.184;2023-03-11T21:38:19;100652.72;;;1.83;100.00
16016;BME280;8112;53.592;10.184;2023-03-11T21:43:21;100663.97;;;1.82;100.00
16016;BME280;8112;53.592;10.184;2023-03-11T21:48:24;100659.66;;;1.83;100.00
16016;BME280;8112;53.592;10.184;2023-03-11T21:53:26;100667.41;;;1.84;100.00
16016;BME280;8112;53.592;10.184;2023-03-11T21:58:28;100666.63;;;1.81;100.00
16016;BME280;8112;53.592;10.184;2023-03-11T22:03:32;100666.97;;;1.67;100.00
16016;BME280;8112;53.592;10.184;2023-03-11T22:08:35;100677.19;;;1.75;100.00
16016;BME280;8112;53.592;10.184;2023-03-11T22:13:36;100671.25;;;1.68;100.00
16016;BME280;8112;53.592;10.184;2023-03-11T22:18:40;100671.13;;;1.74;100.00
16016;BME280;8112;53.592;10.184;2023-03-11T22:23:42;100678.13;;;1.70;100.00
16016;BME280;8112;53.592;10.184;2023-03-11T22:28:43;100675.50;;;1.72;100.00
16016;BME280;8112;53.592;10.184;2023-03-11T22:33:46;100672.66;;;1.44;100.00
16016;BME280;8112;53.592;10.184;2023-03-11T22:38:48;100664.00;;;1.45;100.00
16016;BME280;8112;53.592;10.184;2023-03-11T22:43:50;100677.88;;;1.42;100.00
16016;BME280;8112;53.592;10.184;2023-03-11T22:48:53;100683.84;;;1.47;100.00
16016;BME280;8112;53.592;10.184;2023-03-11T22:53:54;100689.09;;;1.44;100.00
16016;BME280;8112;53.592;10.184;2023-03-11T22:58:56;100684.91;;;1.38;100.00
16016;BME280;8112;53.592;10.184;2023-03-11T23:04:00;100692.06;;;1.27;100.00
16016;BME280;8112;53.592;10.184;2023-03-11T23:09:02;100701.69;;;1.22;100.00
16016;BME280;8112;53.592;10.184;2023-03-11T23:14:04;100698.16;;;1.24;100.00
16016;BME280;8112;53.592;10.184;2023-03-11T23:19:08;100711.78;;;1.36;100.00
16016;BME280;8112;53.592;10.184;2023-03-11T23:24:09;100715.94;;;1.45;100.00
16016;BME280;8112;53.592;10.184;2023-03-11T23:29:11;100723.88;;;1.37;100.00
16016;BME280;8112;53.592;10.184;2023-03-11T23:34:15;100711.94;;;1.28;100.00
16016;BME280;8112;53.592;10.184;2023-03-11T23:39:17;100731.16;;;1.19;100.00
16016;BME280;8112;53.592;10.184;2023-03-11T23:44:18;100742.28;;;1.26;100.00
16016;BME280;8112;53.592;10.184;2023-03-11T23:49:21;100742.34;;;1.23;100.00
16016;BME280;8112;53.592;10.184;2023-03-11T23:54:25;100751.91;;;1.19;100.00
16016;BME280;8112;53.592;10.184;2023-03-11T23:59:27;100762.13;;;1.28;100.00
